sensor_id;sensor_type;location;lat;lon;timestamp;P1;durP1;ratioP1;P2;durP2;ratioP2
72087;SDS011;59961;50.232;8.616;2023-04-01T00:00:14;3.15;;;0.98;;
72087;SDS011;59961;50.232;8.616;2023-04-01T00:02:40;6.18;;;1.10;;
72087;SDS011;59961;50.232;8.616;2023-04-01T00:05:05;2.37;;;0.80;;
72087;SDS011;59961;50.232;8.616;2023-04-01T00:07:30;3.60;;;0.93;;
72087;SDS011;59961;50.232;8.616;2023-04-01T00:09:56;5.85;;;1.05;;
72087;SDS011;59961;50.232;8.616;2023-04-01T00:12:21;6.30;;;1.90;;
72087;SDS011;59961;50.232;8.616;2023-04-01T00:14:46;4.10;;;1.03;;
72087;SDS011;59961;50.232;8.616;2023-04-01T00:17:11;4.20;;;1.33;;
72087;SDS011;59961;50.232;8.616;2023-04-01T00:19:37;6.87;;;0.83;;
72087;SDS011;59961;50.232;8.616;2023-04-01T00:22:02;4.13;;;1.40;;
72087;SDS011;59961;50.232;8.616;2023-04-01T00:24:27;4.50;;;1.00;;
72087;SDS011;59961;50.232;8.616;2023-04-01T00:26:53;3.37;;;1.00;;
72087;SDS011;59961;50.232;8.616;2023-04-01T00:29:18;4.63;;;1.20;;
72087;SDS011;59961;50.232;8.616;2023-04-01T00:31:43;4.30;;;0.87;;
72087;SDS011;59961;50.232;8.616;2023-04-01T00:34:08;2.70;;;1.00;;
72087;SDS011;59961;50.232;8.616;2023-04-01T00:36:33;4.75;;;1.70;;
72087;SDS011;59961;50.232;8.616;2023-04-01T00:38:59;1.63;;;0.87;;
72087;SDS011;59961;50.232;8.616;2023-04-01T00:41:24;1.50;;;0.77;;
72087;SDS011;59961;50.232;8.616;2023-04-01T00:43:51;5.68;;;1.02;;
72087;SDS011;59961;50.232;8.616;2023-04-01T00:46:16;5.97;;;1.20;;
72087;SDS011;59961;50.232;8.616;2023-04-01T00:48:42;5.30;;;1.50;;
72087;SDS011;59961;50.232;8.616;2023-04-01T00:51:09;7.05;;;1.70;;
72087;SDS011;59961;50.232;8.616;2023-04-01T00:53:38;6.85;;;1.10;;
72087;SDS011;59961;50.232;8.616;2023-04-01T00:56:06;5.23;;;1.10;;
72087;SDS011;59961;50.232;8.616;2023-04-01T00:58:33;9.30;;;0.90;;
72087;SDS011;59961;50.232;8.616;2023-04-01T01:00:59;2.55;;;0.88;;
72087;SDS011;59961;50.232;8.616;2023-04-01T01:03:25;4.32;;;1.05;;
72087;SDS011;59961;50.232;8.616;2023-04-01T01:11:22;3.22;;;1.23;;
72087;SDS011;59961;50.232;8.616;2023-04-01T01:16:46;4.07;;;1.00;;
72087;SDS011;59961;50.232;8.616;2023-04-01T01:19:22;6.32;;;1.45;;
72087;SDS011;59961;50.232;8.616;2023-04-01T01:21:55;6.10;;;1.20;;
72087;SDS011;59961;50.232;8.616;2023-04-01T01:24:30;2.63;;;0.93;;
72087;SDS011;59961;50.232;8.616;2023-04-01T01:27:12;5.50;;;1.13;;
72087;SDS011;59961;50.232;8.616;2023-04-01T01:35:33;5.17;;;1.03;;
72087;SDS011;59961;50.232;8.616;2023-04-01T01:38:00;4.25;;;0.85;;
72087;SDS011;59961;50.232;8.616;2023-04-01T01:40:26;5.28;;;1.13;;
72087;SDS011;59961;50.232;8.616;2023-04-01T01:42:53;2.88;;;0.90;;
72087;SDS011;59961;50.232;8.616;2023-04-01T01:45:20;2.55;;;1.13;;
72087;SDS011;59961;50.232;8.616;2023-04-01T01:47:46;4.73;;;2.03;;
72087;SDS011;59961;50.232;8.616;2023-04-01T01:50:14;4.63;;;1.10;;
72087;SDS011;59961;50.232;8.616;2023-04-01T01:52:40;5.15;;;1.40;;
72087;SDS011;59961;50.232;8.616;2023-04-01T01:55:22;5.55;;;1.23;;
72087;SDS011;59961;50.232;8.616;2023-04-01T01:57:48;6.88;;;2.63;;
72087;SDS011;59961;50.232;8.616;2023-04-01T02:00:13;4.60;;;1.50;;
72087;SDS011;59961;50.232;8.616;2023-04-01T02:02:39;5.27;;;1.10;;
72087;SDS011;59961;50.232;8.616;2023-04-01T02:05:05;3.45;;;1.33;;
72087;SDS011;59961;50.232;8.616;2023-04-01T02:07:31;3.47;;;1.17;;
72087;SDS011;59961;50.232;8.616;2023-04-01T02:09:57;4.70;;;1.00;;
72087;SDS011;59961;50.232;8.616;2023-04-01T02:12:22;6.00;;;1.67;;
72087;SDS011;59961;50.232;8.616;2023-04-01T02:14:59;2.67;;;1.20;;
72087;SDS011;59961;50.232;8.616;2023-04-01T02:17:26;4.28;;;1.40;;
72087;SDS011;59961;50.232;8.616;2023-04-01T02:19:56;4.43;;;1.58;;
72087;SDS011;59961;50.232;8.616;2023-04-01T02:22:26;3.60;;;1.10;;
72087;SDS011;59961;50.232;8.616;2023-04-01T02:24:53;3.22;;;1.27;;
72087;SDS011;59961;50.232;8.616;2023-04-01T02:27:19;2.90;;;1.10;;
72087;SDS011;59961;50.232;8.616;2023-04-01T02:29:45;3.40;;;1.13;;
72087;SDS011;59961;50.232;8.616;2023-04-01T02:32:10;3.57;;;1.20;;
72087;SDS011;59961;50.232;8.616;2023-04-01T02:34:35;2.03;;;0.73;;
72087;SDS011;59961;50.232;8.616;2023-04-01T02:37:01;2.27;;;0.93;;
72087;SDS011;59961;50.232;8.616;2023-04-01T02:39:26;4.17;;;1.23;;
72087;SDS011;59961;50.232;8.616;2023-04-01T02:41:52;7.40;;;1.50;;
72087;SDS011;59961;50.232;8.616;2023-04-01T02:44:17;6.30;;;1.13;;
72087;SDS011;59961;50.232;8.616;2023-04-01T02:46:42;3.20;;;0.80;;
72087;SDS011;59961;50.232;8.616;2023-04-01T02:49:08;2.23;;;0.80;;
72087;SDS011;59961;50.232;8.616;2023-04-01T02:51:33;2.77;;;1.00;;
72087;SDS011;59961;50.232;8.616;2023-04-01T02:53:58;3.27;;;0.90;;
72087;SDS011;59961;50.232;8.616;2023-04-01T02:56:24;4.93;;;1.10;;
72087;SDS011;59961;50.232;8.616;2023-04-01T02:58:49;3.75;;;1.20;;
72087;SDS011;59961;50.232;8.616;2023-04-01T03:01:14;4.53;;;0.80;;
72087;SDS011;59961;50.232;8.616;2023-04-01T03:03:39;3.30;;;0.80;;
72087;SDS011;59961;50.232;8.616;2023-04-01T03:06:05;3.80;;;0.60;;
72087;SDS011;59961;50.232;8.616;2023-04-01T03:08:30;4.57;;;0.70;;
72087;SDS011;59961;50.232;8.616;2023-04-01T03:10:56;2.45;;;0.77;;
72087;SDS011;59961;50.232;8.616;2023-04-01T03:13:21;6.63;;;0.80;;
72087;SDS011;59961;50.232;8.616;2023-04-01T03:15:46;3.13;;;1.00;;
72087;SDS011;59961;50.232;8.616;2023-04-01T03:18:11;1.83;;;0.75;;
72087;SDS011;59961;50.232;8.616;2023-04-01T03:20:36;2.53;;;0.97;;
72087;SDS011;59961;50.232;8.616;2023-04-01T03:23:01;6.20;;;1.20;;
72087;SDS011;59961;50.232;8.616;2023-04-01T03:25:26;3.67;;;1.00;;
72087;SDS011;59961;50.232;8.616;2023-04-01T03:27:53;3.83;;;1.00;;
72087;SDS011;59961;50.232;8.616;2023-04-01T03:30:21;6.70;;;0.93;;
72087;SDS011;59961;50.232;8.616;2023-04-01T03:32:46;3.17;;;0.80;;
72087;SDS011;59961;50.232;8.616;2023-04-01T03:35:12;2.78;;;0.60;;
72087;SDS011;59961;50.232;8.616;2023-04-01T03:37:37;4.68;;;1.08;;
72087;SDS011;59961;50.232;8.616;2023-04-01T03:40:02;3.50;;;0.90;;
72087;SDS011;59961;50.232;8.616;2023-04-01T03:42:28;4.83;;;1.03;;
72087;SDS011;59961;50.232;8.616;2023-04-01T03:44:55;5.90;;;0.95;;
72087;SDS011;59961;50.232;8.616;2023-04-01T03:47:20;6.50;;;1.17;;
72087;SDS011;59961;50.232;8.616;2023-04-01T03:49:46;2.30;;;0.90;;
72087;SDS011;59961;50.232;8.616;2023-04-01T03:52:11;3.27;;;0.90;;
72087;SDS011;59961;50.232;8.616;2023-04-01T03:54:36;5.27;;;0.73;;
72087;SDS011;59961;50.232;8.616;2023-04-01T03:57:01;6.88;;;1.40;;
72087;SDS011;59961;50.232;8.616;2023-04-01T03:59:27;3.53;;;0.90;;
72087;SDS011;59961;50.232;8.616;2023-04-01T04:01:52;4.20;;;1.20;;
72087;SDS011;59961;50.232;8.616;2023-04-01T04:04:17;6.43;;;1.00;;
72087;SDS011;59961;50.232;8.616;2023-04-01T04:06:42;3.87;;;0.80;;
72087;SDS011;59961;50.232;8.616;2023-04-01T04:09:07;4.73;;;1.00;;
72087;SDS011;59961;50.232;8.616;2023-04-01T04:11:32;4.93;;;1.30;;
72087;SDS011;59961;50.232;8.616;2023-04-01T04:13:58;4.13;;;1.20;;
72087;SDS011;59961;50.232;8.616;2023-04-01T04:16:23;2.60;;;0.83;;
72087;SDS011;59961;50.232;8.616;2023-04-01T04:18:48;5.25;;;1.20;;
72087;SDS011;59961;50.232;8.616;2023-04-01T04:21:13;4.05;;;1.23;;
72087;SDS011;59961;50.232;8.616;2023-04-01T04:23:39;5.57;;;1.27;;
72087;SDS011;59961;50.232;8.616;2023-04-01T04:26:05;1.70;;;0.70;;
72087;SDS011;59961;50.232;8.616;2023-04-01T04:28:30;3.40;;;0.80;;
72087;SDS011;59961;50.232;8.616;2023-04-01T04:30:56;7.40;;;1.57;;
72087;SDS011;59961;50.232;8.616;2023-04-01T04:33:22;6.97;;;1.40;;
72087;SDS011;59961;50.232;8.616;2023-04-01T04:35:47;4.70;;;1.10;;
72087;SDS011;59961;50.232;8.616;2023-04-01T04:38:12;6.20;;;1.47;;
72087;SDS011;59961;50.232;8.616;2023-04-01T04:40:38;4.18;;;0.93;;
72087;SDS011;59961;50.232;8.616;2023-04-01T04:43:03;2.80;;;0.73;;
72087;SDS011;59961;50.232;8.616;2023-04-01T04:45:29;2.87;;;0.87;;
72087;SDS011;59961;50.232;8.616;2023-04-01T04:47:54;5.13;;;1.10;;
72087;SDS011;59961;50.232;8.616;2023-04-01T04:50:19;2.70;;;0.70;;
72087;SDS011;59961;50.232;8.616;2023-04-01T04:52:44;9.20;;;0.70;;
72087;SDS011;59961;50.232;8.616;2023-04-01T04:55:09;4.27;;;1.10;;
72087;SDS011;59961;50.232;8.616;2023-04-01T04:57:35;2.37;;;0.53;;
72087;SDS011;59961;50.232;8.616;2023-04-01T05:00:00;3.58;;;0.80;;
72087;SDS011;59961;50.232;8.616;2023-04-01T05:02:25;1.33;;;0.50;;
72087;SDS011;59961;50.232;8.616;2023-04-01T05:04:50;4.35;;;0.65;;
72087;SDS011;59961;50.232;8.616;2023-04-01T05:07:15;3.67;;;0.68;;
72087;SDS011;59961;50.232;8.616;2023-04-01T05:09:40;3.73;;;0.97;;
72087;SDS011;59961;50.232;8.616;2023-04-01T05:12:05;2.35;;;0.90;;
72087;SDS011;59961;50.232;8.616;2023-04-01T05:14:30;4.43;;;0.90;;
72087;SDS011;59961;50.232;8.616;2023-04-01T05:16:56;4.40;;;0.90;;
72087;SDS011;59961;50.232;8.616;2023-04-01T05:19:21;3.90;;;1.10;;
72087;SDS011;59961;50.232;8.616;2023-04-01T05:21:46;4.07;;;1.17;;
72087;SDS011;59961;50.232;8.616;2023-04-01T05:24:11;3.00;;;0.80;;
72087;SDS011;59961;50.232;8.616;2023-04-01T05:26:36;4.97;;;0.88;;
72087;SDS011;59961;50.232;8.616;2023-04-01T05:29:02;2.90;;;0.90;;
72087;SDS011;59961;50.232;8.616;2023-04-01T05:31:28;3.60;;;0.80;;
72087;SDS011;59961;50.232;8.616;2023-04-01T05:33:53;6.03;;;1.25;;
72087;SDS011;59961;50.232;8.616;2023-04-01T05:36:19;3.20;;;1.07;;
72087;SDS011;59961;50.232;8.616;2023-04-01T05:38:44;4.70;;;0.97;;
72087;SDS011;59961;50.232;8.616;2023-04-01T05:41:11;4.78;;;0.90;;
72087;SDS011;59961;50.232;8.616;2023-04-01T05:43:36;1.67;;;0.73;;
72087;SDS011;59961;50.232;8.616;2023-04-01T05:46:01;3.42;;;0.82;;
72087;SDS011;59961;50.232;8.616;2023-04-01T05:48:27;5.20;;;0.70;;
72087;SDS011;59961;50.232;8.616;2023-04-01T05:50:52;3.47;;;0.70;;
72087;SDS011;59961;50.232;8.616;2023-04-01T05:53:17;6.63;;;1.40;;
72087;SDS011;59961;50.232;8.616;2023-04-01T05:55:42;2.15;;;0.40;;
72087;SDS011;59961;50.232;8.616;2023-04-01T05:58:07;2.53;;;0.73;;
72087;SDS011;59961;50.232;8.616;2023-04-01T06:00:32;2.40;;;0.63;;
72087;SDS011;59961;50.232;8.616;2023-04-01T06:02:58;3.08;;;0.60;;
72087;SDS011;59961;50.232;8.616;2023-04-01T06:05:24;7.00;;;0.80;;
72087;SDS011;59961;50.232;8.616;2023-04-01T06:07:50;3.08;;;0.50;;
72087;SDS011;59961;50.232;8.616;2023-04-01T06:10:18;4.43;;;0.68;;
72087;SDS011;59961;50.232;8.616;2023-04-01T06:12:45;1.73;;;0.70;;
72087;SDS011;59961;50.232;8.616;2023-04-01T06:15:21;3.57;;;0.70;;
72087;SDS011;59961;50.232;8.616;2023-04-01T06:20:39;2.67;;;0.63;;
72087;SDS011;59961;50.232;8.616;2023-04-01T06:25:47;5.15;;;0.80;;
72087;SDS011;59961;50.232;8.616;2023-04-01T06:30:41;2.95;;;0.52;;
72087;SDS011;59961;50.232;8.616;2023-04-01T06:33:14;1.20;;;0.60;;
72087;SDS011;59961;50.232;8.616;2023-04-01T06:35:48;4.68;;;0.73;;
72087;SDS011;59961;50.232;8.616;2023-04-01T06:40:57;2.10;;;0.60;;
72087;SDS011;59961;50.232;8.616;2023-04-01T06:44:12;0.73;;;0.40;;
72087;SDS011;59961;50.232;8.616;2023-04-01T06:46:19;1.33;;;0.60;;
72087;SDS011;59961;50.232;8.616;2023-04-01T06:48:54;2.42;;;0.75;;
72087;SDS011;59961;50.232;8.616;2023-04-01T06:56:42;3.80;;;0.70;;
72087;SDS011;59961;50.232;8.616;2023-04-01T06:59:10;4.20;;;0.97;;
72087;SDS011;59961;50.232;8.616;2023-04-01T07:01:38;1.88;;;0.57;;
72087;SDS011;59961;50.232;8.616;2023-04-01T07:04:06;3.13;;;0.98;;
72087;SDS011;59961;50.232;8.616;2023-04-01T07:09:12;3.25;;;0.90;;
72087;SDS011;59961;50.232;8.616;2023-04-01T07:11:39;2.80;;;0.77;;
72087;SDS011;59961;50.232;8.616;2023-04-01T07:14:20;3.58;;;0.90;;
72087;SDS011;59961;50.232;8.616;2023-04-01T07:16:54;1.85;;;0.50;;
72087;SDS011;59961;50.232;8.616;2023-04-01T07:19:23;2.75;;;0.70;;
72087;SDS011;59961;50.232;8.616;2023-04-01T07:21:57;5.77;;;0.70;;
72087;SDS011;59961;50.232;8.616;2023-04-01T07:24:29;5.03;;;1.00;;
72087;SDS011;59961;50.232;8.616;2023-04-01T07:26:56;1.70;;;0.52;;
72087;SDS011;59961;50.232;8.616;2023-04-01T07:29:22;1.75;;;0.60;;
72087;SDS011;59961;50.232;8.616;2023-04-01T07:32:07;1.60;;;0.50;;
72087;SDS011;59961;50.232;8.616;2023-04-01T07:34:36;2.88;;;0.70;;
72087;SDS011;59961;50.232;8.616;2023-04-01T07:37:06;2.45;;;0.70;;
72087;SDS011;59961;50.232;8.616;2023-04-01T07:39:38;2.20;;;0.53;;
72087;SDS011;59961;50.232;8.616;2023-04-01T07:44:50;1.23;;;0.60;;
72087;SDS011;59961;50.232;8.616;2023-04-01T07:50:02;1.93;;;0.57;;
72087;SDS011;59961;50.232;8.616;2023-04-01T07:52:35;1.90;;;0.68;;
72087;SDS011;59961;50.232;8.616;2023-04-01T07:55:18;2.63;;;0.73;;
72087;SDS011;59961;50.232;8.616;2023-04-01T08:03:02;3.13;;;0.70;;
72087;SDS011;59961;50.232;8.616;2023-04-01T08:05:36;3.78;;;1.15;;
72087;SDS011;59961;50.232;8.616;2023-04-01T08:08:11;1.40;;;0.60;;
72087;SDS011;59961;50.232;8.616;2023-04-01T08:10:52;3.05;;;0.60;;
72087;SDS011;59961;50.232;8.616;2023-04-01T08:16:01;2.42;;;0.50;;
72087;SDS011;59961;50.232;8.616;2023-04-01T08:21:01;3.78;;;0.77;;
72087;SDS011;59961;50.232;8.616;2023-04-01T08:23:31;2.13;;;0.70;;
72087;SDS011;59961;50.232;8.616;2023-04-01T08:26:08;1.23;;;0.57;;
72087;SDS011;59961;50.232;8.616;2023-04-01T08:28:43;2.80;;;0.60;;
72087;SDS011;59961;50.232;8.616;2023-04-01T08:31:13;1.38;;;0.63;;
72087;SDS011;59961;50.232;8.616;2023-04-01T08:33:41;2.63;;;0.60;;
72087;SDS011;59961;50.232;8.616;2023-04-01T08:38:49;2.30;;;1.00;;
72087;SDS011;59961;50.232;8.616;2023-04-01T08:41:27;1.55;;;0.57;;
72087;SDS011;59961;50.232;8.616;2023-04-01T08:46:48;2.53;;;1.10;;
72087;SDS011;59961;50.232;8.616;2023-04-01T08:52:20;1.60;;;0.63;;
72087;SDS011;59961;50.232;8.616;2023-04-01T08:55:04;1.55;;;0.68;;
72087;SDS011;59961;50.232;8.616;2023-04-01T08:57:49;2.40;;;0.80;;
72087;SDS011;59961;50.232;8.616;2023-04-01T09:02:57;0.70;;;0.40;;
72087;SDS011;59961;50.232;8.616;2023-04-01T09:05:40;1.63;;;0.75;;
72087;SDS011;59961;50.232;8.616;2023-04-01T09:11:06;0.98;;;0.50;;
72087;SDS011;59961;50.232;8.616;2023-04-01T09:21:24;1.90;;;0.70;;
72087;SDS011;59961;50.232;8.616;2023-04-01T09:24:12;1.95;;;0.55;;
72087;SDS011;59961;50.232;8.616;2023-04-01T09:27:01;0.88;;;0.45;;
72087;SDS011;59961;50.232;8.616;2023-04-01T09:34:52;1.13;;;0.55;;
72087;SDS011;59961;50.232;8.616;2023-04-01T09:37:20;2.58;;;1.50;;
72087;SDS011;59961;50.232;8.616;2023-04-01T09:42:40;2.30;;;0.80;;
72087;SDS011;59961;50.232;8.616;2023-04-01T09:45:26;1.60;;;0.90;;
72087;SDS011;59961;50.232;8.616;2023-04-01T09:52:52;2.10;;;0.80;;
72087;SDS011;59961;50.232;8.616;2023-04-01T10:00:26;1.90;;;0.70;;
72087;SDS011;59961;50.232;8.616;2023-04-01T10:17:11;0.90;;;0.57;;
72087;SDS011;59961;50.232;8.616;2023-04-01T10:22:29;2.80;;;1.23;;
72087;SDS011;59961;50.232;8.616;2023-04-01T10:30:58;2.50;;;0.60;;
72087;SDS011;59961;50.232;8.616;2023-04-01T10:34:28;1.00;;;0.60;;
72087;SDS011;59961;50.232;8.616;2023-04-01T10:36:31;1.67;;;1.00;;
72087;SDS011;59961;50.232;8.616;2023-04-01T10:39:03;1.90;;;0.50;;
72087;SDS011;59961;50.232;8.616;2023-04-01T10:46:36;1.37;;;0.50;;
72087;SDS011;59961;50.232;8.616;2023-04-01T10:49:10;1.48;;;0.68;;
72087;SDS011;59961;50.232;8.616;2023-04-01T10:57:21;3.30;;;1.05;;
72087;SDS011;59961;50.232;8.616;2023-04-01T11:03:02;1.50;;;0.65;;
72087;SDS011;59961;50.232;8.616;2023-04-01T11:05:40;0.95;;;0.73;;
72087;SDS011;59961;50.232;8.616;2023-04-01T11:08:19;2.13;;;0.90;;
72087;SDS011;59961;50.232;8.616;2023-04-01T11:11:05;1.15;;;0.57;;
72087;SDS011;59961;50.232;8.616;2023-04-01T11:21:07;1.05;;;0.47;;
72087;SDS011;59961;50.232;8.616;2023-04-01T11:26:32;2.13;;;0.95;;
72087;SDS011;59961;50.232;8.616;2023-04-01T11:34:28;0.65;;;0.50;;
72087;SDS011;59961;50.232;8.616;2023-04-01T11:42:24;1.93;;;0.80;;
72087;SDS011;59961;50.232;8.616;2023-04-01T11:44:57;1.63;;;0.77;;
72087;SDS011;59961;50.232;8.616;2023-04-01T11:47:29;1.88;;;1.05;;
72087;SDS011;59961;50.232;8.616;2023-04-01T11:52:55;2.00;;;0.70;;
72087;SDS011;59961;50.232;8.616;2023-04-01T11:55:28;2.53;;;0.73;;
72087;SDS011;59961;50.232;8.616;2023-04-01T12:00:57;0.88;;;0.50;;
72087;SDS011;59961;50.232;8.616;2023-04-01T12:03:35;1.65;;;0.75;;
72087;SDS011;59961;50.232;8.616;2023-04-01T12:18:46;1.40;;;0.82;;
72087;SDS011;59961;50.232;8.616;2023-04-01T12:21:25;1.23;;;0.70;;
72087;SDS011;59961;50.232;8.616;2023-04-01T12:26:40;1.40;;;0.90;;
72087;SDS011;59961;50.232;8.616;2023-04-01T12:34:53;0.88;;;0.60;;
72087;SDS011;59961;50.232;8.616;2023-04-01T12:50:24;1.73;;;0.70;;
72087;SDS011;59961;50.232;8.616;2023-04-01T12:52:57;0.80;;;0.40;;
72087;SDS011;59961;50.232;8.616;2023-04-01T12:55:33;1.30;;;0.70;;
72087;SDS011;59961;50.232;8.616;2023-04-01T13:00:51;1.02;;;0.52;;
72087;SDS011;59961;50.232;8.616;2023-04-01T13:03:22;1.08;;;0.50;;
72087;SDS011;59961;50.232;8.616;2023-04-01T13:18:48;0.77;;;0.60;;
72087;SDS011;59961;50.232;8.616;2023-04-01T13:21:18;1.37;;;0.90;;
72087;SDS011;59961;50.232;8.616;2023-04-01T13:23:56;1.23;;;0.68;;
72087;SDS011;59961;50.232;8.616;2023-04-01T13:29:09;1.27;;;0.80;;
72087;SDS011;59961;50.232;8.616;2023-04-01T13:37:04;1.40;;;0.40;;
72087;SDS011;59961;50.232;8.616;2023-04-01T13:39:41;1.13;;;0.60;;
72087;SDS011;59961;50.232;8.616;2023-04-01T13:52:36;1.80;;;0.77;;
72087;SDS011;59961;50.232;8.616;2023-04-01T13:55:15;1.38;;;0.65;;
72087;SDS011;59961;50.232;8.616;2023-04-01T14:05:51;1.95;;;0.90;;
72087;SDS011;59961;50.232;8.616;2023-04-01T14:10:50;1.60;;;0.90;;
72087;SDS011;59961;50.232;8.616;2023-04-01T14:16:03;2.20;;;0.70;;
72087;SDS011;59961;50.232;8.616;2023-04-01T14:18:33;2.80;;;0.80;;
72087;SDS011;59961;50.232;8.616;2023-04-01T14:23:36;1.38;;;0.77;;
72087;SDS011;59961;50.232;8.616;2023-04-01T14:33:43;0.68;;;0.50;;
72087;SDS011;59961;50.232;8.616;2023-04-01T14:41:40;1.00;;;0.80;;
72087;SDS011;59961;50.232;8.616;2023-04-01T14:44:11;2.13;;;0.87;;
72087;SDS011;59961;50.232;8.616;2023-04-01T14:46:49;3.50;;;0.50;;
72087;SDS011;59961;50.232;8.616;2023-04-01T14:49:20;0.80;;;0.47;;
72087;SDS011;59961;50.232;8.616;2023-04-01T14:51:47;2.50;;;1.10;;
72087;SDS011;59961;50.232;8.616;2023-04-01T14:54:14;1.52;;;0.80;;
72087;SDS011;59961;50.232;8.616;2023-04-01T14:56:48;0.80;;;0.67;;
72087;SDS011;59961;50.232;8.616;2023-04-01T14:59:34;1.98;;;0.70;;
72087;SDS011;59961;50.232;8.616;2023-04-01T15:04:50;3.33;;;0.70;;
72087;SDS011;59961;50.232;8.616;2023-04-01T15:07:21;0.95;;;0.50;;
72087;SDS011;59961;50.232;8.616;2023-04-01T15:12:26;2.53;;;0.57;;
72087;SDS011;59961;50.232;8.616;2023-04-01T15:20:10;2.63;;;0.70;;
72087;SDS011;59961;50.232;8.616;2023-04-01T15:22:43;2.42;;;0.90;;
72087;SDS011;59961;50.232;8.616;2023-04-01T15:25:16;3.28;;;1.25;;
72087;SDS011;59961;50.232;8.616;2023-04-01T15:30:28;3.40;;;1.05;;
72087;SDS011;59961;50.232;8.616;2023-04-01T15:38:05;2.83;;;0.82;;
72087;SDS011;59961;50.232;8.616;2023-04-01T15:40:48;1.73;;;0.70;;
72087;SDS011;59961;50.232;8.616;2023-04-01T15:45:58;1.90;;;0.80;;
72087;SDS011;59961;50.232;8.616;2023-04-01T15:48:40;1.42;;;0.80;;
72087;SDS011;59961;50.232;8.616;2023-04-01T15:51:23;2.63;;;0.98;;
72087;SDS011;59961;50.232;8.616;2023-04-01T15:53:56;2.23;;;0.90;;
72087;SDS011;59961;50.232;8.616;2023-04-01T16:04:17;1.88;;;0.70;;
72087;SDS011;59961;50.232;8.616;2023-04-01T16:12:16;1.52;;;0.80;;
72087;SDS011;59961;50.232;8.616;2023-04-01T16:17:23;2.25;;;1.00;;
72087;SDS011;59961;50.232;8.616;2023-04-01T16:19:56;1.65;;;0.82;;
72087;SDS011;59961;50.232;8.616;2023-04-01T16:22:27;2.53;;;1.00;;
72087;SDS011;59961;50.232;8.616;2023-04-01T16:27:36;2.00;;;1.00;;
72087;SDS011;59961;50.232;8.616;2023-04-01T16:37:43;1.73;;;0.90;;
72087;SDS011;59961;50.232;8.616;2023-04-01T16:43:13;1.77;;;0.70;;
72087;SDS011;59961;50.232;8.616;2023-04-01T16:45:40;1.95;;;1.02;;
72087;SDS011;59961;50.232;8.616;2023-04-01T16:53:16;2.73;;;0.80;;
72087;SDS011;59961;50.232;8.616;2023-04-01T16:55:54;1.52;;;0.70;;
72087;SDS011;59961;50.232;8.616;2023-04-01T17:01:04;3.28;;;1.05;;
72087;SDS011;59961;50.232;8.616;2023-04-01T17:03:36;1.80;;;0.98;;
72087;SDS011;59961;50.232;8.616;2023-04-01T17:06:17;1.77;;;0.73;;
72087;SDS011;59961;50.232;8.616;2023-04-01T17:11:37;10.27;;;2.50;;
72087;SDS011;59961;50.232;8.616;2023-04-01T17:14:08;4.63;;;1.60;;
72087;SDS011;59961;50.232;8.616;2023-04-01T17:19:14;3.73;;;1.40;;
72087;SDS011;59961;50.232;8.616;2023-04-01T17:21:46;6.03;;;1.63;;
72087;SDS011;59961;50.232;8.616;2023-04-01T17:26:46;3.03;;;0.97;;
72087;SDS011;59961;50.232;8.616;2023-04-01T17:31:45;3.05;;;1.00;;
72087;SDS011;59961;50.232;8.616;2023-04-01T17:34:26;2.33;;;1.30;;
72087;SDS011;59961;50.232;8.616;2023-04-01T17:39:30;3.43;;;1.67;;
72087;SDS011;59961;50.232;8.616;2023-04-01T18:03:06;2.83;;;1.35;;
72087;SDS011;59961;50.232;8.616;2023-04-01T18:05:40;3.80;;;1.07;;
72087;SDS011;59961;50.232;8.616;2023-04-01T18:21:07;3.17;;;1.20;;
72087;SDS011;59961;50.232;8.616;2023-04-01T18:23:43;2.28;;;1.30;;
72087;SDS011;59961;50.232;8.616;2023-04-01T18:26:14;2.75;;;1.30;;
72087;SDS011;59961;50.232;8.616;2023-04-01T18:31:32;5.70;;;1.47;;
72087;SDS011;59961;50.232;8.616;2023-04-01T18:34:31;2.13;;;0.90;;
72087;SDS011;59961;50.232;8.616;2023-04-01T18:37:38;2.15;;;1.08;;
72087;SDS011;59961;50.232;8.616;2023-04-01T18:45:26;2.40;;;1.07;;
72087;SDS011;59961;50.232;8.616;2023-04-01T18:50:27;3.78;;;1.63;;
72087;SDS011;59961;50.232;8.616;2023-04-01T18:52:56;4.13;;;1.88;;
72087;SDS011;59961;50.232;8.616;2023-04-01T18:55:31;3.53;;;1.75;;
72087;SDS011;59961;50.232;8.616;2023-04-01T18:58:06;2.27;;;1.10;;
72087;SDS011;59961;50.232;8.616;2023-04-01T19:00:40;3.17;;;1.40;;
72087;SDS011;59961;50.232;8.616;2023-04-01T19:03:16;2.80;;;1.27;;
72087;SDS011;59961;50.232;8.616;2023-04-01T19:05:44;2.75;;;0.95;;
72087;SDS011;59961;50.232;8.616;2023-04-01T19:10:52;3.20;;;1.20;;
72087;SDS011;59961;50.232;8.616;2023-04-01T19:18:41;4.05;;;1.00;;
72087;SDS011;59961;50.232;8.616;2023-04-01T19:21:11;3.63;;;0.90;;
72087;SDS011;59961;50.232;8.616;2023-04-01T19:29:03;2.95;;;0.90;;
72087;SDS011;59961;50.232;8.616;2023-04-01T19:34:21;1.90;;;0.90;;
72087;SDS011;59961;50.232;8.616;2023-04-01T19:36:59;2.67;;;1.00;;
72087;SDS011;59961;50.232;8.616;2023-04-01T19:39:30;3.22;;;1.10;;
72087;SDS011;59961;50.232;8.616;2023-04-01T19:42:00;4.75;;;1.17;;
72087;SDS011;59961;50.232;8.616;2023-04-01T19:44:40;4.05;;;1.10;;
72087;SDS011;59961;50.232;8.616;2023-04-01T19:52:10;2.70;;;1.00;;
72087;SDS011;59961;50.232;8.616;2023-04-01T19:54:49;2.45;;;1.10;;
72087;SDS011;59961;50.232;8.616;2023-04-01T19:57:34;2.10;;;1.17;;
72087;SDS011;59961;50.232;8.616;2023-04-01T20:02:39;3.63;;;1.50;;
72087;SDS011;59961;50.232;8.616;2023-04-01T20:05:19;4.07;;;1.10;;
72087;SDS011;59961;50.232;8.616;2023-04-01T20:07:51;3.92;;;1.73;;
72087;SDS011;59961;50.232;8.616;2023-04-01T20:10:19;4.05;;;1.55;;
72087;SDS011;59961;50.232;8.616;2023-04-01T20:12:55;4.75;;;2.42;;
72087;SDS011;59961;50.232;8.616;2023-04-01T20:17:47;3.83;;;1.57;;
72087;SDS011;59961;50.232;8.616;2023-04-01T20:20:19;3.10;;;1.20;;
72087;SDS011;59961;50.232;8.616;2023-04-01T20:27:45;4.30;;;1.42;;
72087;SDS011;59961;50.232;8.616;2023-04-01T20:35:25;4.38;;;1.80;;
72087;SDS011;59961;50.232;8.616;2023-04-01T20:41:02;4.70;;;2.23;;
72087;SDS011;59961;50.232;8.616;2023-04-01T20:51:22;3.28;;;1.80;;
72087;SDS011;59961;50.232;8.616;2023-04-01T20:53:51;4.23;;;1.90;;
72087;SDS011;59961;50.232;8.616;2023-04-01T20:56:23;4.22;;;1.88;;
72087;SDS011;59961;50.232;8.616;2023-04-01T20:58:58;4.40;;;2.13;;
72087;SDS011;59961;50.232;8.616;2023-04-01T21:04:22;4.78;;;2.05;;
72087;SDS011;59961;50.232;8.616;2023-04-01T21:06:49;5.37;;;2.10;;
72087;SDS011;59961;50.232;8.616;2023-04-01T21:09:29;6.68;;;2.88;;
72087;SDS011;59961;50.232;8.616;2023-04-01T21:12:05;5.40;;;2.85;;
72087;SDS011;59961;50.232;8.616;2023-04-01T21:25:17;2.83;;;1.60;;
72087;SDS011;59961;50.232;8.616;2023-04-01T21:27:52;4.45;;;1.77;;
72087;SDS011;59961;50.232;8.616;2023-04-01T21:33:16;4.57;;;1.97;;
72087;SDS011;59961;50.232;8.616;2023-04-01T21:54:07;7.57;;;3.15;;
72087;SDS011;59961;50.232;8.616;2023-04-01T22:04:23;9.07;;;3.45;;
72087;SDS011;59961;50.232;8.616;2023-04-01T22:12:38;8.15;;;3.35;;
72087;SDS011;59961;50.232;8.616;2023-04-01T22:20:33;10.23;;;4.32;;
72087;SDS011;59961;50.232;8.616;2023-04-01T22:28:07;7.17;;;2.90;;
72087;SDS011;59961;50.232;8.616;2023-04-01T22:30:36;5.90;;;2.53;;
72087;SDS011;59961;50.232;8.616;2023-04-01T22:33:12;6.90;;;2.70;;
72087;SDS011;59961;50.232;8.616;2023-04-01T22:43:37;6.53;;;2.85;;
72087;SDS011;59961;50.232;8.616;2023-04-01T22:46:37;6.80;;;2.75;;
72087;SDS011;59961;50.232;8.616;2023-04-01T22:49:07;4.68;;;2.50;;
72087;SDS011;59961;50.232;8.616;2023-04-01T22:54:15;11.17;;;4.23;;
72087;SDS011;59961;50.232;8.616;2023-04-01T22:56:44;8.00;;;3.00;;
72087;SDS011;59961;50.232;8.616;2023-04-01T22:59:13;5.65;;;3.00;;
72087;SDS011;59961;50.232;8.616;2023-04-01T23:01:44;7.18;;;3.30;;
72087;SDS011;59961;50.232;8.616;2023-04-01T23:04:15;5.30;;;2.65;;
72087;SDS011;59961;50.232;8.616;2023-04-01T23:06:42;5.47;;;2.83;;